Time;durP1;ratioP1;P1;durP2;ratioP2;P2;SDS_P1;SDS_P2;PMS_P1;PMS_P2;Temp;Humidity;BMP_temperature;BMP_pressure;BME280_temperature;BME280_humidity;BME280_pressure;Samples;Min_cycle;Max_cycle;Signal;HPM_P1;HPM_P2
2023/08/03 00:01:38;;;;;;;;;;;;;;;23.95;54.80;99349.06;5444455;32;35345;-70
2023/08/03 00:04:40;;;;;;;;;;;;;;;24.32;53.47;99340.41;5442617;32;34685;-70
2023/08/03 00:07:42;;;;;;;;;;;;;;;24.05;54.26;99339.00;5441737;32;34972;-69
2023/08/03 00:10:44;;;;;;;;;;;;;;;23.95;54.70;99349.06;5444978;32;34892;-69
2023/08/03 00:13:46;;;;;;;;;;;;;;;23.80;55.33;99346.25;5442475;32;34244;-69
2023/08/03 00:16:48;;;;;;;;;;;;;;;23.73;55.68;99347.94;5456123;32;34202;-69
2023/08/03 00:19:50;;;;;;;;;;;;;;;23.43;56.86;99352.09;5444591;32;34439;-70
2023/08/03 00:22:51;;;;;;;;;;;;;;;23.31;57.21;99356.94;5439571;32;35655;-69
2023/08/03 00:25:54;;;;;;;;;;;;;;;23.61;56.58;99352.81;5442537;32;35221;-69
2023/08/03 00:28:55;;;;;;;;;;;;;;;24.00;55.04;99352.91;5442297;32;34319;-69
2023/08/03 00:32:00;;;;;;;;;;;;;;;23.88;55.39;99358.81;5445214;32;34980;-69
2023/08/03 00:35:04;;;;;;;;;;;;;;;23.81;55.69;99357.81;5437951;32;35413;-71
2023/08/03 00:38:06;;;;;;;;;;;;;;;23.70;55.74;99354.50;5431740;32;34934;-70
2023/08/03 00:41:08;;;;;;;;;;;;;;;23.54;56.51;99367.03;5427117;32;35337;-70
2023/08/03 00:44:09;;;;;;;;;;;;;;;23.54;56.62;99365.19;5444532;32;34851;-69
2023/08/03 00:47:12;;;;;;;;;;;;;;;22.80;59.21;99368.72;5444244;32;34815;-69
2023/08/03 00:50:14;;;;;;;;;;;;;;;22.74;59.22;99359.50;5440319;32;34712;-69
2023/08/03 00:53:16;;;;;;;;;;;;;;;23.21;57.51;99357.12;5444982;32;35382;-70
2023/08/03 00:56:17;;;;;;;;;;;;;;;23.81;55.63;99363.19;5440094;32;34576;-69
2023/08/03 00:59:19;;;;;;;;;;;;;;;23.78;55.47;99359.84;5433488;32;34405;-70
2023/08/03 01:02:22;;;;;;;;;;;;;;;24.02;54.67;99350.06;5429181;32;36391;-70
2023/08/03 01:05:25;;;;;;;;;;;;;;;23.80;55.17;99356.97;5428499;32;34876;-70
2023/08/03 01:08:30;;;;;;;;;;;;;;;23.59;55.83;99352.09;5444638;32;34685;-70
2023/08/03 01:11:32;;;;;;;;;;;;;;;24.24;53.67;99359.25;5442804;32;34853;-70
2023/08/03 01:14:34;;;;;;;;;;;;;;;23.72;55.09;99362.34;5431898;32;34476;-70
2023/08/03 01:17:36;;;;;;;;;;;;;;;23.96;54.41;99353.44;5425582;32;35405;-69
2023/08/03 01:20:38;;;;;;;;;;;;;;;24.10;54.06;99365.31;5433385;32;34820;-70
2023/08/03 01:23:40;;;;;;;;;;;;;;;23.89;54.74;99363.16;5429842;32;34611;-69
2023/08/03 01:26:44;;;;;;;;;;;;;;;23.69;55.09;99360.84;5442631;32;34945;-70
2023/08/03 01:29:45;;;;;;;;;;;;;;;23.09;56.89;99354.91;5444349;32;34290;-70
2023/08/03 01:32:47;;;;;;;;;;;;;;;23.21;56.76;99357.12;5441895;32;34366;-70
2023/08/03 01:35:50;;;;;;;;;;;;;;;23.22;56.76;99352.59;5434150;32;34237;-70
2023/08/03 01:38:53;;;;;;;;;;;;;;;23.71;55.32;99348.13;5427190;32;34878;-70
2023/08/03 01:41:55;;;;;;;;;;;;;;;23.83;54.80;99350.41;5443561;32;35514;-69
2023/08/03 01:44:58;;;;;;;;;;;;;;;23.65;55.20;99346.09;5440415;32;34692;-69
2023/08/03 01:48:00;;;;;;;;;;;;;;;23.54;55.61;99338.34;5431720;32;34244;-69
2023/08/03 01:51:02;;;;;;;;;;;;;;;23.67;55.25;99336.03;5436289;32;34943;-70
2023/08/03 01:54:04;;;;;;;;;;;;;;;23.48;55.78;99337.19;5441715;32;34316;-69
2023/08/03 01:57:06;;;;;;;;;;;;;;;23.23;56.40;99322.94;5445627;32;35453;-70
2023/08/03 02:00:08;;;;;;;;;;;;;;;23.16;56.67;99332.66;5427792;32;34769;-70
2023/08/03 02:03:10;;;;;;;;;;;;;;;23.22;56.63;99329.31;5445113;32;34903;-70
2023/08/03 02:06:12;;;;;;;;;;;;;;;23.29;56.34;99323.28;5440136;32;35252;-70
2023/08/03 02:09:14;;;;;;;;;;;;;;;23.32;56.41;99331.00;5441892;32;34395;-69
2023/08/03 02:12:16;;;;;;;;;;;;;;;23.14;57.02;99331.97;5444623;32;34594;-70
2023/08/03 02:15:18;;;;;;;;;;;;;;;22.79;58.20;99321.50;5427285;32;35534;-70
2023/08/03 02:18:20;;;;;;;;;;;;;;;23.56;55.72;99322.09;5453725;32;34825;-70
2023/08/03 02:21:22;;;;;;;;;;;;;;;23.12;56.51;99328.66;5440125;32;35193;-69
2023/08/03 02:24:23;;;;;;;;;;;;;;;22.18;60.27;99339.53;5444917;32;34392;-70
2023/08/03 02:27:25;;;;;;;;;;;;;;;22.14;60.54;99341.66;5439765;32;34882;-70
2023/08/03 02:30:27;;;;;;;;;;;;;;;22.43;59.81;99327.09;5441163;32;34974;-70
2023/08/03 02:33:29;;;;;;;;;;;;;;;22.45;59.60;99333.13;5443278;32;34594;-70
2023/08/03 02:36:31;;;;;;;;;;;;;;;22.39;60.13;99334.59;5437211;32;34780;-69
2023/08/03 02:39:33;;;;;;;;;;;;;;;22.47;59.21;99340.97;5434590;32;35388;-69
2023/08/03 02:42:35;;;;;;;;;;;;;;;21.73;61.65;99343.22;5436844;32;35307;-69
2023/08/03 02:45:37;;;;;;;;;;;;;;;23.07;57.08;99335.50;5433301;32;35186;-70
2023/08/03 02:48:39;;;;;;;;;;;;;;;23.29;55.92;99336.69;5441138;32;34831;-69
2023/08/03 02:51:44;;;;;;;;;;;;;;;22.96;57.21;99339.31;5440438;32;34208;-70
2023/08/03 02:54:47;;;;;;;;;;;;;;;23.12;56.39;99336.69;5444735;32;34882;-70
2023/08/03 02:57:48;;;;;;;;;;;;;;;22.91;57.24;99338.97;5439120;32;34822;-69
2023/08/03 03:00:50;;;;;;;;;;;;;;;22.17;59.42;99349.38;5443984;32;35643;-70
2023/08/03 03:03:52;;;;;;;;;;;;;;;22.23;59.63;99339.06;5439780;32;35041;-70
2023/08/03 03:06:54;;;;;;;;;;;;;;;23.21;56.23;99338.34;5443692;32;34952;-70
2023/08/03 03:09:56;;;;;;;;;;;;;;;23.52;55.04;99348.44;5440575;32;34091;-70
2023/08/03 03:12:58;;;;;;;;;;;;;;;23.04;56.21;99350.03;5439973;32;34901;-70
2023/08/03 03:16:00;;;;;;;;;;;;;;;23.62;54.63;99349.09;5431753;32;35386;-70
2023/08/03 03:19:02;;;;;;;;;;;;;;;23.17;55.68;99350.41;5440630;32;34083;-70
2023/08/03 03:22:04;;;;;;;;;;;;;;;23.37;55.29;99350.91;5443721;32;34654;-69
2023/08/03 03:25:06;;;;;;;;;;;;;;;23.08;56.10;99351.41;5440533;32;34088;-70
2023/08/03 03:28:08;;;;;;;;;;;;;;;22.84;57.33;99354.00;5446672;32;34837;-70
2023/08/03 03:31:10;;;;;;;;;;;;;;;22.98;56.86;99356.06;5441272;32;35014;-70
2023/08/03 03:34:12;;;;;;;;;;;;;;;22.97;56.90;99349.88;5430410;32;34621;-70
2023/08/03 03:37:14;;;;;;;;;;;;;;;22.56;58.02;99367.63;5443096;32;34644;-70
2023/08/03 03:40:16;;;;;;;;;;;;;;;22.65;58.00;99357.78;5438658;32;34868;-70
2023/08/03 03:43:21;;;;;;;;;;;;;;;23.34;55.67;99356.62;5446849;32;35023;-69
2023/08/03 03:46:23;;;;;;;;;;;;;;;23.38;55.36;99362.47;5428294;32;34635;-70
2023/08/03 03:49:25;;;;;;;;;;;;;;;23.72;54.39;99367.72;5446599;32;34269;-69
2023/08/03 03:52:26;;;;;;;;;;;;;;;23.63;54.72;99360.66;5416077;32;35096;-69
2023/08/03 03:55:28;;;;;;;;;;;;;;;23.83;54.03;99369.19;5440411;32;35628;-69
2023/08/03 03:58:30;;;;;;;;;;;;;;;23.74;54.19;99363.84;5446061;32;35319;-69
2023/08/03 04:01:32;;;;;;;;;;;;;;;23.73;54.23;99355.97;5441308;32;34547;-70
2023/08/03 04:04:34;;;;;;;;;;;;;;;23.52;54.86;99360.00;5445859;32;34740;-69
2023/08/03 04:07:36;;;;;;;;;;;;;;;23.37;55.43;99356.28;5441800;32;34769;-70
2023/08/03 04:10:38;;;;;;;;;;;;;;;23.11;56.44;99345.69;5445255;32;35239;-71
2023/08/03 04:13:40;;;;;;;;;;;;;;;23.62;54.97;99349.09;5428522;32;35615;-70
2023/08/03 04:16:42;;;;;;;;;;;;;;;23.16;56.03;99347.91;5441196;32;34247;-69
2023/08/03 04:19:44;;;;;;;;;;;;;;;23.56;55.15;99344.38;5445909;32;34282;-70
2023/08/03 04:22:46;;;;;;;;;;;;;;;23.20;56.17;99350.09;5446101;32;34380;-70
2023/08/03 04:25:47;;;;;;;;;;;;;;;23.51;55.33;99368.22;5432796;32;34144;-69
2023/08/03 04:28:49;;;;;;;;;;;;;;;23.61;55.24;99359.97;5442056;32;35625;-71
2023/08/03 04:31:51;;;;;;;;;;;;;;;23.49;55.83;99367.53;5434073;32;34886;-71
2023/08/03 04:34:53;;;;;;;;;;;;;;;23.14;56.74;99355.28;5446597;32;35171;-70
2023/08/03 04:37:55;;;;;;;;;;;;;;;23.58;55.90;99346.91;5431531;32;34546;-70
2023/08/03 04:41:00;;;;;;;;;;;;;;;23.77;55.35;99346.59;5445882;32;35190;-70
2023/08/03 04:44:02;;;;;;;;;;;;;;;23.32;56.99;99342.56;5440446;32;35069;-70
2023/08/03 04:47:04;;;;;;;;;;;;;;;23.08;57.80;99334.50;5444838;32;34523;-70
2023/08/03 04:50:06;;;;;;;;;;;;;;;23.95;55.25;99339.16;5440994;32;34549;-70
2023/08/03 04:53:08;;;;;;;;;;;;;;;23.89;55.17;99336.31;5447958;32;34905;-70
2023/08/03 04:56:10;;;;;;;;;;;;;;;24.32;54.32;99337.72;5432419;32;34824;-70
2023/08/03 04:59:12;;;;;;;;;;;;;;;23.88;55.38;99338.19;5433505;32;35422;-70
2023/08/03 05:02:14;;;;;;;;;;;;;;;24.72;53.20;99336.72;5445141;32;35189;-70
2023/08/03 05:05:16;;;;;;;;;;;;;;;24.86;52.49;99343.22;5440640;32;36440;-70
2023/08/03 05:08:18;;;;;;;;;;;;;;;25.02;52.43;99342.28;5431056;32;34885;-71
2023/08/03 05:11:20;;;;;;;;;;;;;;;24.42;53.91;99349.16;5418162;32;35263;-71
2023/08/03 05:14:22;;;;;;;;;;;;;;;24.75;53.42;99346.31;5434723;32;34294;-70
2023/08/03 05:17:24;;;;;;;;;;;;;;;25.88;50.34;99355.41;5448788;32;35497;-70
2023/08/03 05:20:26;;;;;;;;;;;;;;;25.74;50.16;99347.31;5441318;32;35439;-71
2023/08/03 05:23:28;;;;;;;;;;;;;;;25.08;52.21;99353.19;5435622;32;34631;-70
2023/08/03 05:26:33;;;;;;;;;;;;;;;25.50;50.92;99356.41;5434412;32;35511;-69
2023/08/03 05:29:35;;;;;;;;;;;;;;;26.66;48.06;99342.41;5436256;32;35312;-69
2023/08/03 05:32:37;;;;;;;;;;;;;;;27.38;46.06;99347.81;5447268;32;34145;-70
2023/08/03 05:35:40;;;;;;;;;;;;;;;26.71;47.31;99337.31;5449975;32;34271;-70
2023/08/03 05:38:42;;;;;;;;;;;;;;;27.45;46.29;99337.91;5448317;32;35475;-68
2023/08/03 05:41:44;;;;;;;;;;;;;;;27.68;45.33;99329.59;5447977;32;35775;-69
2023/08/03 05:44:46;;;;;;;;;;;;;;;28.50;43.22;99344.28;5431893;32;35422;-68
2023/08/03 05:47:48;;;;;;;;;;;;;;;28.03;44.10;99340.47;5447303;32;34889;-69
2023/08/03 05:50:51;;;;;;;;;;;;;;;29.07;42.43;99341.19;5437145;32;35206;-68
2023/08/03 05:53:54;;;;;;;;;;;;;;;28.28;44.25;99351.63;5427424;32;34869;-69
2023/08/03 05:56:58;;;;;;;;;;;;;;;29.26;40.12;99344.97;5428091;32;34367;-72
2023/08/03 06:00:00;;;;;;;;;;;;;;;29.58;39.52;99340.66;5440128;32;34286;-72
2023/08/03 06:03:03;;;;;;;;;;;;;;;29.82;40.99;99335.63;5439440;32;34712;-69
2023/08/03 06:06:08;;;;;;;;;;;;;;;30.79;38.92;99347.53;5438645;32;35634;-70
2023/08/03 06:09:11;;;;;;;;;;;;;;;30.76;38.82;99340.66;5427663;32;35073;-68
2023/08/03 06:12:16;;;;;;;;;;;;;;;30.14;40.17;99351.06;5431837;32;35277;-68
2023/08/03 06:15:20;;;;;;;;;;;;;;;29.41;41.95;99358.31;5436256;32;34986;-72
2023/08/03 06:18:22;;;;;;;;;;;;;;;29.12;42.60;99354.09;5433547;32;34494;-75
2023/08/03 06:21:26;;;;;;;;;;;;;;;29.37;42.14;99352.50;5447395;32;35053;-79
2023/08/03 06:24:28;;;;;;;;;;;;;;;29.32;42.57;99351.44;5429471;32;34736;-72
2023/08/03 06:27:30;;;;;;;;;;;;;;;29.52;41.92;99354.19;5438297;32;34696;-73
2023/08/03 06:30:32;;;;;;;;;;;;;;;30.87;39.86;99350.00;5436968;32;34507;-72
2023/08/03 06:33:34;;;;;;;;;;;;;;;31.61;37.90;99345.75;5443018;32;34677;-66
2023/08/03 06:36:36;;;;;;;;;;;;;;;30.88;39.09;99347.06;5430596;32;35360;-70
2023/08/03 06:39:38;;;;;;;;;;;;;;;30.79;39.63;99348.38;5437324;32;34174;-72
2023/08/03 06:42:40;;;;;;;;;;;;;;;31.83;37.57;99348.97;5441028;32;35827;-72
2023/08/03 06:45:42;;;;;;;;;;;;;;;30.66;39.87;99367.38;5438607;32;34489;-72
2023/08/03 06:48:46;;;;;;;;;;;;;;;29.34;42.37;99365.59;5435834;32;34537;-71
2023/08/03 06:51:48;;;;;;;;;;;;;;;29.59;42.56;99352.31;5426838;32;34934;-71
2023/08/03 06:54:50;;;;;;;;;;;;;;;29.01;44.07;99365.53;5435359;32;34728;-69
2023/08/03 06:57:53;;;;;;;;;;;;;;;29.23;43.61;99368.87;5437606;32;35212;-67
2023/08/03 07:00:55;;;;;;;;;;;;;;;29.52;43.27;99368.56;5436622;32;34475;-67
2023/08/03 07:03:57;;;;;;;;;;;;;;;29.87;42.04;99368.34;5415820;32;34904;-71
2023/08/03 07:06:59;;;;;;;;;;;;;;;29.76;42.90;99374.41;5441804;32;34159;-72
2023/08/03 07:10:01;;;;;;;;;;;;;;;28.90;44.52;99382.28;5401888;32;949703;-70
2023/08/03 07:13:04;;;;;;;;;;;;;;;28.42;45.52;99393.94;5435038;32;34818;-67
2023/08/03 07:16:09;;;;;;;;;;;;;;;29.14;43.80;99395.31;5416801;32;35129;-74
2023/08/03 07:19:12;;;;;;;;;;;;;;;27.09;48.55;99396.47;5440069;32;34303;-71
2023/08/03 07:22:14;;;;;;;;;;;;;;;27.07;49.38;99396.66;5437004;32;34567;-68
2023/08/03 07:25:19;;;;;;;;;;;;;;;26.26;51.24;99401.13;5440301;32;34829;-72
2023/08/03 07:28:21;;;;;;;;;;;;;;;26.85;50.46;99403.81;5439628;32;35998;-70
2023/08/03 07:31:24;;;;;;;;;;;;;;;27.90;47.74;99402.47;5443422;32;35162;-69
2023/08/03 07:34:26;;;;;;;;;;;;;;;27.57;48.40;99397.59;5435464;32;34369;-67
2023/08/03 07:37:28;;;;;;;;;;;;;;;27.36;49.18;99411.06;5426694;32;35433;-70
2023/08/03 07:40:30;;;;;;;;;;;;;;;26.57;51.22;99416.31;5427484;32;34776;-71
2023/08/03 07:43:32;;;;;;;;;;;;;;;26.91;50.52;99405.75;5426161;32;35089;-76
2023/08/03 07:46:34;;;;;;;;;;;;;;;27.93;47.74;99410.19;5438529;32;35011;-69
2023/08/03 07:49:36;;;;;;;;;;;;;;;27.00;49.93;99411.91;5439128;32;35222;-70
2023/08/03 07:52:39;;;;;;;;;;;;;;;27.29;49.06;99420.97;5429134;32;34074;-74
2023/08/03 07:55:41;;;;;;;;;;;;;;;26.76;50.70;99436.47;5421927;32;33944;-72
2023/08/03 07:58:44;;;;;;;;;;;;;;;27.61;48.30;99433.12;5425437;32;34546;-74
2023/08/03 08:01:46;;;;;;;;;;;;;;;27.99;47.59;99437.25;5437620;32;34146;-70
2023/08/03 08:04:49;;;;;;;;;;;;;;;26.82;50.85;99438.44;5433521;32;34283;-73
2023/08/03 08:07:53;;;;;;;;;;;;;;;26.69;51.58;99444.47;5419989;32;34629;-72
2023/08/03 08:10:55;;;;;;;;;;;;;;;26.84;51.03;99447.97;5426119;32;33989;-70
2023/08/03 08:14:13;;;;;;;;;;;;;;;26.80;51.39;99449.41;5439539;32;34320;-73
2023/08/03 08:17:15;;;;;;;;;;;;;;;26.72;51.48;99453.00;5416167;32;34246;-68
2023/08/03 08:20:19;;;;;;;;;;;;;;;26.96;51.37;99456.44;5441413;32;34482;-71
2023/08/03 08:23:21;;;;;;;;;;;;;;;26.97;51.32;99463.50;5447908;32;34616;-68
2023/08/03 08:26:25;;;;;;;;;;;;;;;26.37;52.78;99454.56;5440713;32;34179;-75
2023/08/03 08:29:27;;;;;;;;;;;;;;;27.04;51.21;99471.66;5431408;32;34165;-69
2023/08/03 08:32:29;;;;;;;;;;;;;;;28.51;46.82;99475.69;5440608;32;34597;-69
2023/08/03 08:35:31;;;;;;;;;;;;;;;30.58;42.22;99470.62;5437375;32;33982;-80
2023/08/03 08:38:33;;;;;;;;;;;;;;;31.88;39.15;99472.22;5439402;32;35336;-75
2023/08/03 08:41:39;;;;;;;;;;;;;;;30.56;40.82;99475.44;5437715;32;35305;-67
2023/08/03 08:44:43;;;;;;;;;;;;;;;31.59;38.86;99479.06;5428838;32;33863;-71
2023/08/03 08:47:45;;;;;;;;;;;;;;;30.38;41.60;99467.97;5439960;32;34989;-73
2023/08/03 08:50:49;;;;;;;;;;;;;;;30.38;41.61;99471.50;5430570;32;34375;-77
2023/08/03 08:53:54;;;;;;;;;;;;;;;29.51;43.75;99474.31;5424892;32;36421;-70
2023/08/03 08:56:59;;;;;;;;;;;;;;;30.33;41.91;99471.28;5441220;32;35955;-70
2023/08/03 09:00:07;;;;;;;;;;;;;;;30.14;42.66;99475.72;5426125;32;33639;-71
2023/08/03 09:03:10;;;;;;;;;;;;;;;29.26;44.41;99488.38;5440205;32;35941;-72
2023/08/03 09:06:12;;;;;;;;;;;;;;;28.83;44.95;99488.56;5426817;32;34804;-71
2023/08/03 09:09:17;;;;;;;;;;;;;;;29.12;45.00;99486.66;5440204;32;36185;-69
2023/08/03 09:12:23;;;;;;;;;;;;;;;31.18;40.13;99471.31;5418239;32;34702;-72
2023/08/03 09:15:38;;;;;;;;;;;;;;;31.57;39.58;99483.88;5406004;32;34741;-70
2023/08/03 09:18:43;;;;;;;;;;;;;;;31.44;39.29;99494.81;5433049;32;34363;-73
2023/08/03 09:21:58;;;;;;;;;;;;;;;32.11;38.48;99476.22;5438617;32;35510;-78
2023/08/03 09:25:07;;;;;;;;;;;;;;;33.91;35.17;99473.97;5429226;32;33992;-81
2023/08/03 09:28:09;;;;;;;;;;;;;;;33.98;35.14;99474.69;5447614;32;37217;-79
2023/08/03 09:31:19;;;;;;;;;;;;;;;33.47;35.10;99480.66;5435946;32;34748;-87
2023/08/03 09:34:33;;;;;;;;;;;;;;;31.97;38.40;99483.66;5415992;32;34622;-75
2023/08/03 09:37:38;;;;;;;;;;;;;;;32.01;38.20;99490.28;5439890;32;35370;-80
2023/08/03 09:40:44;;;;;;;;;;;;;;;31.32;38.96;99501.97;5427257;32;33594;-74
2023/08/03 09:43:48;;;;;;;;;;;;;;;30.33;41.83;99505.69;5445638;32;34749;-74
2023/08/03 09:46:50;;;;;;;;;;;;;;;31.67;39.35;99502.41;5412422;32;34276;-80
2023/08/03 09:49:53;;;;;;;;;;;;;;;30.75;40.66;99509.84;5435032;32;34944;-82
2023/08/03 09:52:55;;;;;;;;;;;;;;;31.02;40.53;99505.19;5415774;32;36969;-73
2023/08/03 09:56:03;;;;;;;;;;;;;;;29.88;42.67;99522.53;5443388;32;34266;-74
2023/08/03 09:59:06;;;;;;;;;;;;;;;31.16;39.99;99516.81;5428935;32;34818;-86
2023/08/03 10:02:11;;;;;;;;;;;;;;;32.51;37.58;99502.00;5424064;32;35162;-86
2023/08/03 10:05:15;;;;;;;;;;;;;;;33.46;35.50;99517.12;5431736;32;34286;-71
2023/08/03 10:08:24;;;;;;;;;;;;;;;32.38;37.44;99517.62;5428420;32;35532;-73
2023/08/03 10:11:27;;;;;;;;;;;;;;;35.16;32.45;99516.44;5439690;32;35090;-74
2023/08/03 10:14:30;;;;;;;;;;;;;;;36.33;30.02;99515.94;5450010;32;34666;-72
2023/08/03 10:17:32;;;;;;;;;;;;;;;33.48;34.84;99526.72;5432529;32;35181;-80
2023/08/03 10:20:35;;;;;;;;;;;;;;;33.80;33.30;99518.31;5441337;32;35123;-82
2023/08/03 10:23:39;;;;;;;;;;;;;;;34.07;33.23;99511.44;5429243;32;32706;-88
2023/08/03 10:26:41;;;;;;;;;;;;;;;36.10;29.28;99505.97;5443909;32;34862;-72
2023/08/03 10:29:49;;;;;;;;;;;;;;;35.10;30.94;99507.34;5407020;32;35252;-79
2023/08/03 10:32:52;;;;;;;;;;;;;;;35.14;30.87;99507.66;5430253;32;35055;-76
2023/08/03 10:35:54;;;;;;;;;;;;;;;36.00;29.51;99505.78;5439961;32;34947;-74
2023/08/03 10:38:57;;;;;;;;;;;;;;;34.68;31.56;99495.72;5442909;32;34657;-70
2023/08/03 10:41:59;;;;;;;;;;;;;;;34.70;31.70;99497.16;5440032;32;34507;-69
2023/08/03 10:45:24;;;;;;;;;;;;;;;34.53;31.92;99501.69;5443745;32;35908;-70
2023/08/03 10:48:28;;;;;;;;;;;;;;;34.29;32.14;99517.16;5433821;32;34250;-77
2023/08/03 10:51:30;;;;;;;;;;;;;;;33.09;34.18;99514.41;5437040;32;34889;-77
2023/08/03 10:54:32;;;;;;;;;;;;;;;32.85;34.77;99513.41;5439991;32;35129;-72
2023/08/03 10:57:34;;;;;;;;;;;;;;;34.29;31.52;99514.44;5443633;32;34657;-73
2023/08/03 11:00:36;;;;;;;;;;;;;;;34.70;30.00;99518.16;5425961;32;34875;-77
2023/08/03 11:03:38;;;;;;;;;;;;;;;34.53;29.84;99509.03;5432570;32;35801;-77
2023/08/03 11:06:40;;;;;;;;;;;;;;;34.92;30.02;99505.59;5433203;32;34747;-78
2023/08/03 11:09:42;;;;;;;;;;;;;;;34.07;30.42;99508.72;5431126;32;34624;-76
2023/08/03 11:12:46;;;;;;;;;;;;;;;34.42;28.99;99514.25;5440037;32;35629;-72
2023/08/03 11:15:48;;;;;;;;;;;;;;;34.54;25.64;99502.50;5429734;32;34740;-81
2023/08/03 11:18:49;;;;;;;;;;;;;;;34.32;24.78;99516.69;5429183;32;34215;-72
2023/08/03 11:21:52;;;;;;;;;;;;;;;36.06;22.67;99510.28;5435324;32;34465;-74
2023/08/03 11:24:57;;;;;;;;;;;;;;;35.93;22.67;99522.34;5433021;32;35430;-75
2023/08/03 11:27:59;;;;;;;;;;;;;;;33.94;24.70;99528.00;5438745;32;34976;-84
2023/08/03 11:31:01;;;;;;;;;;;;;;;33.41;25.41;99537.69;5439230;32;34343;-70
2023/08/03 11:34:03;;;;;;;;;;;;;;;33.33;25.26;99548.88;5443985;32;34279;-71
2023/08/03 11:37:06;;;;;;;;;;;;;;;32.06;27.59;99566.56;5431266;32;35747;-73
2023/08/03 11:40:13;;;;;;;;;;;;;;;31.69;28.02;99570.94;5441780;32;36469;-75
2023/08/03 11:43:18;;;;;;;;;;;;;;;31.98;27.64;99558.69;5428066;32;35297;-74
2023/08/03 11:46:25;;;;;;;;;;;;;;;32.10;28.09;99567.78;5429819;32;34246;-78
2023/08/03 11:49:28;;;;;;;;;;;;;;;32.31;28.53;99559.25;5426906;32;35848;-71
2023/08/03 11:52:32;;;;;;;;;;;;;;;31.17;31.01;99561.91;5434071;32;36050;-72
2023/08/03 11:55:38;;;;;;;;;;;;;;;31.17;31.70;99565.47;5418694;32;35330;-79
2023/08/03 11:58:41;;;;;;;;;;;;;;;31.66;30.36;99574.91;5435360;32;34276;-70
2023/08/03 12:01:44;;;;;;;;;;;;;;;32.70;28.82;99567.34;5428745;32;33936;-69
2023/08/03 12:04:53;;;;;;;;;;;;;;;32.64;28.75;99565.50;5436101;32;35418;-70
2023/08/03 12:07:56;;;;;;;;;;;;;;;34.09;26.49;99565.75;5427938;32;34422;-69
2023/08/03 12:11:02;;;;;;;;;;;;;;;33.82;26.70;99570.72;5441976;32;36902;-69
2023/08/03 12:14:04;;;;;;;;;;;;;;;32.82;28.73;99566.37;5439338;32;33922;-69
2023/08/03 12:17:10;;;;;;;;;;;;;;;33.93;25.70;99569.94;5442572;32;34641;-71
2023/08/03 12:20:12;;;;;;;;;;;;;;;34.73;23.91;99566.81;5444905;32;36215;-73
2023/08/03 12:23:17;;;;;;;;;;;;;;;34.82;24.17;99575.47;5443600;32;33957;-77
2023/08/03 12:26:19;;;;;;;;;;;;;;;33.57;24.54;99573.56;5429524;32;34544;-75
2023/08/03 12:29:22;;;;;;;;;;;;;;;35.46;22.79;99562.72;5420984;32;34273;-84
2023/08/03 12:32:31;;;;;;;;;;;;;;;34.31;23.49;99557.84;5438093;32;34638;-83
2023/08/03 12:35:35;;;;;;;;;;;;;;;36.19;22.42;99563.81;5446403;32;35210;-71
2023/08/03 12:38:37;;;;;;;;;;;;;;;35.29;22.96;99576.25;5445898;32;34327;-77
2023/08/03 12:41:45;;;;;;;;;;;;;;;32.60;27.11;99586.91;5437970;32;34713;-77
2023/08/03 12:44:48;;;;;;;;;;;;;;;31.08;29.78;99591.16;5448969;32;35114;-73
2023/08/03 12:47:52;;;;;;;;;;;;;;;31.05;31.01;99597.03;5435970;32;34237;-76
2023/08/03 12:50:55;;;;;;;;;;;;;;;31.04;32.23;99605.37;5436481;32;33728;-77
2023/08/03 12:53:57;;;;;;;;;;;;;;;30.94;33.36;99605.81;5437553;32;36523;-67
2023/08/03 12:57:01;;;;;;;;;;;;;;;31.25;32.74;99597.84;5436765;32;35988;-73
2023/08/03 13:00:04;;;;;;;;;;;;;;;32.02;31.93;99606.13;5442464;32;35253;-74
2023/08/03 13:03:09;;;;;;;;;;;;;;;30.94;32.09;99613.94;5441857;32;36644;-71
2023/08/03 13:06:13;;;;;;;;;;;;;;;30.64;33.65;99617.06;5444428;32;35755;-67
2023/08/03 13:09:15;;;;;;;;;;;;;;;30.40;34.37;99621.25;5439950;32;33224;-69
2023/08/03 13:12:20;;;;;;;;;;;;;;;31.24;33.00;99628.75;5425107;32;34358;-71
2023/08/03 13:15:22;;;;;;;;;;;;;;;30.96;33.52;99620.00;5439528;32;34319;-76
2023/08/03 13:18:24;;;;;;;;;;;;;;;30.55;34.06;99618.31;5436661;32;34818;-68
2023/08/03 13:21:27;;;;;;;;;;;;;;;30.95;33.31;99597.47;5441620;32;36754;-79
2023/08/03 13:24:29;;;;;;;;;;;;;;;29.64;35.14;99599.75;5436719;32;35702;-68
2023/08/03 13:27:34;;;;;;;;;;;;;;;30.15;35.13;99595.75;5440135;32;35735;-69
2023/08/03 13:30:36;;;;;;;;;;;;;;;31.02;33.99;99592.00;5416525;32;35419;-75
2023/08/03 13:33:38;;;;;;;;;;;;;;;31.13;34.04;99593.25;5441919;32;34757;-81
2023/08/03 13:36:41;;;;;;;;;;;;;;;30.33;35.77;99595.97;5440424;32;34273;-72
2023/08/03 13:39:44;;;;;;;;;;;;;;;29.86;37.26;99611.28;5440726;32;34223;-75
2023/08/03 13:42:46;;;;;;;;;;;;;;;30.45;36.14;99604.31;5432596;32;34218;-73
2023/08/03 13:45:48;;;;;;;;;;;;;;;30.44;36.46;99614.34;5437623;32;34372;-74
2023/08/03 13:48:51;;;;;;;;;;;;;;;31.58;34.33;99607.75;5422397;32;34440;-81
2023/08/03 13:51:53;;;;;;;;;;;;;;;30.04;36.92;99626.97;5431402;32;35641;-78
2023/08/03 13:54:57;;;;;;;;;;;;;;;30.32;36.92;99626.84;5440870;32;34193;-78
2023/08/03 13:58:00;;;;;;;;;;;;;;;30.46;36.35;99615.00;5440820;32;34628;-71
2023/08/03 14:01:07;;;;;;;;;;;;;;;30.08;36.56;99624.69;5436183;32;34126;-77
2023/08/03 14:04:16;;;;;;;;;;;;;;;30.29;36.21;99612.87;5434618;32;33736;-71
2023/08/03 14:07:18;;;;;;;;;;;;;;;29.80;36.63;99622.09;5432212;32;34384;-77
2023/08/03 14:10:40;;;;;;;;;;;;;;;29.30;36.97;99621.41;5436176;32;36100;-81
2023/08/03 14:15:23;;;;;;;5.50;2.97;;;;;;;29.82;37.24;99601.03;5471428;32;237776;-68
2023/08/03 14:18:30;;;;;;;3.62;2.35;;;;;;;29.72;37.38;99612.28;5452921;32;32847;-68
2023/08/03 14:21:36;;;;;;;5.85;2.85;;;;;;;30.18;35.86;99608.88;5453832;32;33709;-78
2023/08/03 14:24:58;;;;;;;5.25;2.58;;;;;;;29.82;35.47;99617.28;5454349;32;35738;-67
2023/08/03 14:28:03;;;;;;;6.00;2.30;;;;;;;29.48;35.90;99610.88;5464207;32;34229;-68
2023/08/03 14:31:25;;;;;;;;;;;;;;;29.99;34.97;99607.78;5464924;32;34160;-68
2023/08/03 14:34:27;;;;;;;5.00;2.33;;;;;;;29.95;34.53;99617.38;5465844;32;35424;-78
2023/08/03 14:37:49;;;;;;;;;;;;;;;29.77;34.51;99626.03;5450233;32;34764;-78
2023/08/03 14:40:51;;;;;;;5.37;2.37;;;;;;;29.88;34.34;99633.59;5468241;32;34514;-80
2023/08/03 14:43:53;;;;;;;5.60;2.60;;;;;;;29.25;35.68;99638.25;5451018;32;35142;-67
2023/08/03 14:47:05;;;;;;;4.62;2.50;;;;;;;29.20;35.85;99629.91;5468771;32;34603;-68
2023/08/03 14:50:08;;;;;;;10.00;2.55;;;;;;;30.41;33.66;99619.34;5466567;32;34720;-68
2023/08/03 14:53:13;;;;;;;4.95;2.40;;;;;;;29.22;35.52;99616.16;5439326;32;37314;-76
2023/08/03 14:56:16;;;;;;;6.37;3.00;;;;;;;30.06;33.87;99619.47;5466033;32;35312;-76
2023/08/03 14:59:22;;;;;;;4.35;2.33;;;;;;;29.96;34.29;99624.44;5448334;32;37208;-69
2023/08/03 15:02:26;;;;;;;7.62;2.50;;;;;;;29.42;35.00;99622.50;5460491;32;33915;-79
2023/08/03 15:05:29;;;;;;;9.30;5.37;;;;;;;28.91;35.62;99609.25;5462491;32;33289;-78
2023/08/03 15:08:32;;;;;;;4.87;2.60;;;;;;;29.40;34.86;99617.31;5463863;32;34781;-79
2023/08/03 15:11:34;;;;;;;5.32;3.00;;;;;;;29.20;35.35;99623.66;5466039;32;34279;-68
2023/08/03 15:14:36;;;;;;;7.35;2.60;;;;;;;29.92;34.35;99617.75;5456127;32;35106;-68
2023/08/03 15:17:38;;;;;;;5.55;2.58;;;;;;;29.84;34.66;99618.78;5457490;32;34402;-68
2023/08/03 15:20:41;;;;;;;6.53;2.95;;;;;;;29.91;34.81;99622.34;5458785;32;34728;-78
2023/08/03 15:23:45;;;;;;;3.58;2.40;;;;;;;29.60;36.43;99620.13;5454756;32;35211;-68
2023/08/03 15:26:49;;;;;;;5.30;2.60;;;;;;;29.20;36.81;99629.91;5448691;32;34444;-78
2023/08/03 15:29:57;;;;;;;6.20;2.53;;;;;;;29.17;37.02;99622.16;5439315;32;36944;-68
2023/08/03 15:33:21;;;;;;;5.07;2.55;;;;;;;30.56;34.78;99624.56;5442093;32;35121;-68
2023/08/03 15:36:40;;;;;;;4.43;2.12;;;;;;;30.28;35.30;99627.47;5432448;32;35265;-68
2023/08/03 15:39:47;;;;;;;6.68;2.70;;;;;;;28.53;38.61;99630.38;5427395;32;33052;-79
2023/08/03 15:42:55;;;;;;;8.48;3.25;;;;;;;29.56;37.12;99627.00;5451937;32;34585;-78
2023/08/03 15:46:02;;;;;;;3.95;2.20;;;;;;;28.99;37.86;99624.56;5443132;32;35261;-68